Zebulon, Georgia
Current Conditions -  °F | °C
As of 8:35 AM on Sunday 23 Nov 2014 (Local Time) from K6A2 Reporting Station
Overcast Overcast  
Wind Chill: 50°   Ceiling: 400
Heat Index: 50°   Visibility: 3mi
Dew Point: 50°   Wind: 6mph
Humidity: 100%   Direction: 70°ENE
Pressure: 30"   Gusts: NA
Location:  33.1°N, 84.34°W
Report Text: K6A2 231335Z AUTO 07005KT 3SM OVC004 10/10 A3000 RMK AO2
Loading
Personal Weather Stations






























Interactive Weather Map New forecast layout! Learn more

10-Day Weather Forecast

Advertisements
Track Severe Weather on mobile